Time;durP1;ratioP1;P1;durP2;ratioP2;P2;SDS_P1;SDS_P2;PMS_P1;PMS_P2;Temp;Humidity;BMP_temperature;BMP_pressure;BME280_temperature;BME280_humidity;BME280_pressure;Samples;Min_cycle;Max_cycle;Signal;HPM_P1;HPM_P2
2021/05/21 00:01:44;;;;;;;8.40;3.80;;;22.00;52.90;;;;;;5112235;28;20047;-39
2021/05/21 00:04:11;;;;;;;8.60;3.70;;;22.00;52.90;;;;;;5113897;27;20039;-40
2021/05/21 00:06:39;;;;;;;11.80;3.22;;;22.00;52.90;;;;;;5113534;28;20059;-39
2021/05/21 00:09:06;;;;;;;5.95;2.80;;;22.10;53.00;;;;;;5100988;28;20054;-39
2021/05/21 00:11:33;;;;;;;7.13;3.17;;;22.00;52.90;;;;;;5114185;28;20052;-39
2021/05/21 00:14:00;;;;;;;8.98;3.22;;;22.00;52.90;;;;;;5098339;28;20406;-39
2021/05/21 00:16:28;;;;;;;7.97;3.28;;;22.00;52.90;;;;;;5113372;27;20682;-39
2021/05/21 00:18:55;;;;;;;8.15;2.80;;;22.00;52.90;;;;;;5113095;28;20451;-38
2021/05/21 00:21:22;;;;;;;11.98;4.13;;;22.10;53.00;;;;;;5111981;28;20062;-39
2021/05/21 00:23:50;;;;;;;9.38;3.15;;;22.10;53.00;;;;;;5113390;28;20043;-39
2021/05/21 00:26:17;;;;;;;7.28;2.90;;;22.10;53.00;;;;;;5111737;28;20043;-39
2021/05/21 00:28:44;;;;;;;6.57;3.08;;;22.00;52.90;;;;;;5112601;28;20102;-40
2021/05/21 00:31:11;;;;;;;10.23;3.03;;;22.00;52.90;;;;;;5112089;28;20054;-39
2021/05/21 00:33:38;;;;;;;9.38;3.20;;;22.00;52.90;;;;;;5113581;27;20050;-39
2021/05/21 00:36:06;;;;;;;6.88;3.40;;;22.10;53.00;;;;;;5113004;28;20051;-39
2021/05/21 00:38:33;;;;;;;6.35;2.78;;;22.00;52.90;;;;;;5110521;28;20167;-39
2021/05/21 00:41:01;;;;;;;10.95;3.15;;;22.00;52.90;;;;;;5102413;27;20048;-39
2021/05/21 00:43:28;;;;;;;7.53;3.03;;;22.00;52.90;;;;;;5112708;27;20048;-39
2021/05/21 00:45:56;;;;;;;7.38;3.20;;;22.00;52.90;;;;;;5112900;28;20096;-39
2021/05/21 00:48:23;;;;;;;6.72;3.30;;;22.00;52.90;;;;;;5112758;28;20047;-39
2021/05/21 00:50:50;;;;;;;9.50;3.10;;;22.00;52.90;;;;;;5111473;28;20047;-39
2021/05/21 00:53:20;;;;;;;6.10;2.83;;;22.00;52.90;;;;;;5112644;28;20044;-39
2021/05/21 00:55:48;;;;;;;7.75;3.13;;;22.00;52.90;;;;;;5111415;28;20043;-39
2021/05/21 00:58:15;;;;;;;7.18;3.20;;;22.10;53.00;;;;;;5111913;28;20047;-39
2021/05/21 01:00:42;;;;;;;11.20;3.42;;;22.00;52.90;;;;;;5112682;28;20418;-39
2021/05/21 01:03:09;;;;;;;8.98;3.28;;;22.00;52.90;;;;;;5111160;27;20066;-39
2021/05/21 01:05:36;;;;;;;8.75;2.92;;;22.00;52.90;;;;;;5113193;28;20456;-39
2021/05/21 01:08:04;;;;;;;6.57;3.13;;;22.00;52.90;;;;;;5110639;28;20051;-39
2021/05/21 01:10:31;;;;;;;5.55;3.10;;;22.00;52.90;;;;;;5112026;28;20047;-38
2021/05/21 01:12:58;;;;;;;6.75;3.00;;;22.00;52.90;;;;;;5111362;28;20048;-39
2021/05/21 01:15:25;;;;;;;6.60;2.88;;;22.00;52.80;;;;;;5111388;28;20054;-39
2021/05/21 01:17:53;;;;;;;8.45;3.20;;;22.00;52.90;;;;;;5111995;28;20491;-39
2021/05/21 01:20:20;;;;;;;6.25;3.10;;;22.00;52.90;;;;;;5110081;28;20047;-39
2021/05/21 01:22:47;;;;;;;4.10;2.83;;;22.00;52.90;;;;;;5111805;28;20048;-39
2021/05/21 01:25:14;;;;;;;5.38;2.90;;;22.00;52.90;;;;;;5111609;27;20048;-40
2021/05/21 01:27:42;;;;;;;6.63;3.53;;;22.00;52.90;;;;;;5111464;28;20051;-39
2021/05/21 01:30:09;;;;;;;7.22;3.28;;;22.00;52.90;;;;;;5111851;28;20055;-39
2021/05/21 01:32:37;;;;;;;7.70;3.45;;;22.00;52.90;;;;;;5111256;28;20052;-39
2021/05/21 01:35:05;;;;;;;6.05;2.85;;;22.00;52.90;;;;;;5112663;28;20093;-39
2021/05/21 01:37:33;;;;;;;7.20;2.88;;;22.00;52.90;;;;;;5110285;27;20096;-40
2021/05/21 01:40:01;;;;;;;5.20;2.78;;;22.00;52.90;;;;;;5110702;28;20051;-39
2021/05/21 01:42:30;;;;;;;5.78;2.90;;;22.00;52.90;;;;;;5111326;28;20073;-39
2021/05/21 01:44:58;;;;;;;5.03;2.58;;;22.00;52.90;;;;;;5111752;27;20051;-39
2021/05/21 01:47:26;;;;;;;6.75;2.60;;;22.00;52.80;;;;;;5112144;28;20048;-39
2021/05/21 01:49:53;;;;;;;5.43;2.65;;;22.00;52.90;;;;;;5109849;28;20108;-40
2021/05/21 01:52:20;;;;;;;5.60;2.70;;;22.00;52.80;;;;;;5110905;28;20068;-41
2021/05/21 01:54:47;;;;;;;7.10;3.10;;;22.00;52.80;;;;;;5111719;28;20071;-39
2021/05/21 01:57:14;;;;;;;6.85;2.78;;;22.00;52.80;;;;;;5109941;28;20096;-39
2021/05/21 01:59:41;;;;;;;3.95;2.28;;;22.00;52.80;;;;;;5111567;28;20092;-39
2021/05/21 02:02:09;;;;;;;7.90;2.88;;;22.00;52.80;;;;;;5110350;28;20461;-39
2021/05/21 02:04:39;;;;;;;4.22;2.42;;;22.00;53.50;;;;;;5111834;28;20051;-39
2021/05/21 02:07:15;;;;;;;6.07;2.50;;;22.00;52.80;;;;;;5110989;28;20047;-39
2021/05/21 02:10:00;;;;;;;7.25;2.80;;;22.00;52.80;;;;;;5110461;28;20051;-39
2021/05/21 02:12:29;;;;;;;5.07;2.30;;;22.00;52.90;;;;;;5111235;28;20048;-39
2021/05/21 02:14:59;;;;;;;4.88;2.58;;;22.00;52.90;;;;;;5109425;28;20050;-40
2021/05/21 02:17:27;;;;;;;6.60;2.88;;;22.00;52.90;;;;;;5111553;27;20047;-39
2021/05/21 02:19:59;;;;;;;5.10;2.85;;;22.00;52.90;;;;;;5110483;28;20043;-39
2021/05/21 02:22:28;;;;;;;5.43;2.60;;;22.00;52.90;;;;;;5110738;28;20047;-39
2021/05/21 02:24:58;;;;;;;5.10;2.65;;;22.00;52.90;;;;;;5111327;28;20058;-39
2021/05/21 02:27:26;;;;;;;7.07;2.90;;;22.00;52.90;;;;;;5110209;27;20069;-39
2021/05/21 02:29:54;;;;;;;5.35;2.75;;;22.00;52.90;;;;;;5111455;28;20047;-39
2021/05/21 02:32:21;;;;;;;8.82;2.85;;;22.00;52.90;;;;;;5109802;28;20047;-39
2021/05/21 02:34:50;;;;;;;4.45;2.78;;;22.00;52.90;;;;;;5111171;28;20093;-39
2021/05/21 02:37:17;;;;;;;6.88;2.20;;;22.00;52.90;;;;;;5110923;28;20516;-40
2021/05/21 02:39:45;;;;;;;5.38;2.75;;;22.00;52.90;;;;;;5109187;28;20046;-39
2021/05/21 02:42:12;;;;;;;5.15;2.25;;;22.00;52.90;;;;;;5111079;28;20496;-39
2021/05/21 02:44:39;;;;;;;5.78;2.58;;;22.00;52.90;;;;;;5110302;28;20128;-39
2021/05/21 02:47:06;;;;;;;6.03;2.50;;;22.00;52.90;;;;;;5110141;28;20048;-39
2021/05/21 02:49:34;;;;;;;5.85;2.33;;;22.00;52.90;;;;;;5111291;28;20074;-43
2021/05/21 02:52:02;;;;;;;5.88;2.70;;;22.00;52.90;;;;;;5109785;28;20052;-39
2021/05/21 02:54:29;;;;;;;6.90;2.22;;;22.00;52.90;;;;;;5110543;28;20067;-40
2021/05/21 02:56:57;;;;;;;7.57;3.00;;;22.00;52.90;;;;;;5078845;28;20040;-39
2021/05/21 02:59:24;;;;;;;5.35;2.60;;;22.00;52.90;;;;;;5110484;28;20047;-39
2021/05/21 03:01:51;;;;;;;6.78;2.60;;;22.00;52.90;;;;;;5113575;28;20460;-41
2021/05/21 03:04:18;;;;;;;5.22;2.38;;;22.00;52.90;;;;;;5103280;28;21278;-39
2021/05/21 03:06:45;;;;;;;5.15;2.38;;;22.00;52.90;;;;;;5114669;28;20039;-39
2021/05/21 03:09:12;;;;;;;4.20;2.15;;;22.00;52.90;;;;;;5113551;28;20039;-40
2021/05/21 03:11:39;;;;;;;7.43;3.13;;;22.00;52.90;;;;;;5114451;27;20388;-39
2021/05/21 03:14:07;;;;;;;5.82;2.63;;;22.00;52.90;;;;;;5114357;28;20434;-39
2021/05/21 03:16:34;;;;;;;5.80;2.63;;;22.00;52.90;;;;;;5113817;28;20047;-39
2021/05/21 03:19:01;;;;;;;3.72;2.60;;;22.00;52.90;;;;;;5114673;28;20044;-39
2021/05/21 03:21:28;;;;;;;7.22;2.47;;;22.00;52.90;;;;;;5102086;28;20075;-40
2021/05/21 03:23:56;;;;;;;4.15;2.33;;;22.00;52.90;;;;;;5114601;27;20472;-39
2021/05/21 03:26:23;;;;;;;4.22;2.20;;;22.00;52.90;;;;;;5113575;28;20050;-39
2021/05/21 03:28:50;;;;;;;3.63;2.40;;;22.00;52.90;;;;;;5113291;28;20047;-40
2021/05/21 03:31:17;;;;;;;3.70;2.13;;;22.00;52.90;;;;;;5114554;28;20051;-38
2021/05/21 03:33:44;;;;;;;4.10;2.60;;;22.00;52.90;;;;;;5112104;28;20047;-39
2021/05/21 03:36:11;;;;;;;4.97;2.40;;;22.00;52.90;;;;;;5114763;28;20047;-40
2021/05/21 03:38:39;;;;;;;7.30;2.55;;;22.00;52.90;;;;;;5114033;27;20056;-39
2021/05/21 03:41:06;;;;;;;4.07;2.17;;;22.00;52.90;;;;;;5115359;27;20047;-39
2021/05/21 03:43:34;;;;;;;4.85;2.65;;;22.00;52.90;;;;;;5114353;28;20047;-39
2021/05/21 03:46:01;;;;;;;5.53;2.30;;;22.00;52.90;;;;;;5103443;28;21131;-40
2021/05/21 03:48:29;;;;;;;4.68;2.28;;;22.00;52.90;;;;;;5114552;28;20047;-38
2021/05/21 03:50:56;;;;;;;4.68;2.03;;;22.00;52.90;;;;;;5113307;27;20491;-39
2021/05/21 03:53:23;;;;;;;3.97;2.17;;;22.00;52.90;;;;;;5114034;28;20042;-39
2021/05/21 03:55:51;;;;;;;3.72;2.33;;;22.00;52.80;;;;;;5113840;28;20399;-38
2021/05/21 03:58:18;;;;;;;3.90;2.38;;;22.00;52.90;;;;;;5112694;28;20040;-39
2021/05/21 04:00:45;;;;;;;5.93;2.55;;;22.00;52.80;;;;;;5114437;28;20697;-39
2021/05/21 04:03:13;;;;;;;4.35;2.05;;;22.00;52.80;;;;;;5100479;28;20052;-39
2021/05/21 04:05:40;;;;;;;4.15;2.22;;;22.00;52.80;;;;;;5114122;27;20047;-38
2021/05/21 04:08:08;;;;;;;3.63;2.10;;;22.00;52.80;;;;;;5113296;28;20051;-38
2021/05/21 04:10:36;;;;;;;4.25;2.25;;;22.00;52.80;;;;;;5111953;28;20044;-38
2021/05/21 04:13:03;;;;;;;5.85;2.25;;;22.00;52.80;;;;;;5113026;28;20059;-40
2021/05/21 04:15:31;;;;;;;4.88;2.08;;;22.00;52.80;;;;;;5111519;28;20056;-39
2021/05/21 04:17:58;;;;;;;6.22;2.60;;;22.00;52.80;;;;;;5114311;28;20035;-39
2021/05/21 04:20:26;;;;;;;4.57;2.25;;;22.00;52.80;;;;;;5112309;28;20040;-39
2021/05/21 04:22:53;;;;;;;6.05;2.28;;;22.00;52.80;;;;;;5102739;28;20054;-39
2021/05/21 04:25:20;;;;;;;4.22;2.33;;;22.00;52.80;;;;;;5112973;28;20051;-40
2021/05/21 04:27:47;;;;;;;5.10;2.20;;;22.00;52.80;;;;;;5112467;28;20070;-39
2021/05/21 04:30:15;;;;;;;5.65;2.50;;;22.00;52.80;;;;;;5113294;28;20062;-39
2021/05/21 04:32:42;;;;;;;4.80;2.03;;;22.00;52.80;;;;;;5112743;28;20044;-39
2021/05/21 04:35:10;;;;;;;4.35;2.05;;;22.00;52.80;;;;;;5112809;27;20056;-40
2021/05/21 04:37:38;;;;;;;3.42;1.73;;;22.00;52.80;;;;;;5112875;28;20407;-39
2021/05/21 04:40:05;;;;;;;3.10;2.05;;;22.00;52.80;;;;;;5111788;27;20054;-39
2021/05/21 04:42:42;;;;;;;5.40;2.35;;;22.00;52.80;;;;;;5104035;28;20139;-39
2021/05/21 04:45:10;;;;;;;4.78;2.10;;;22.00;52.80;;;;;;5111808;27;20055;-39
2021/05/21 04:47:38;;;;;;;8.18;2.10;;;22.00;52.80;;;;;;5113733;27;20441;-39
2021/05/21 04:50:07;;;;;;;6.13;2.33;;;22.00;52.70;;;;;;5112490;28;20052;-39
2021/05/21 04:52:34;;;;;;;4.85;2.28;;;22.00;52.70;;;;;;5112493;27;20392;-39
2021/05/21 04:55:02;;;;;;;3.53;2.17;;;22.10;52.80;;;;;;5113282;28;20075;-42
2021/05/21 04:57:29;;;;;;;3.60;2.03;;;22.10;52.80;;;;;;5101687;28;20055;-40
2021/05/21 04:59:58;;;;;;;4.00;2.28;;;22.00;52.70;;;;;;5112776;28;20039;-39
2021/05/21 05:02:26;;;;;;;3.53;2.10;;;22.00;52.70;;;;;;5111469;28;20407;-40
2021/05/21 05:04:54;;;;;;;2.78;1.85;;;22.10;52.80;;;;;;5112354;27;20048;-39
2021/05/21 05:07:21;;;;;;;4.82;2.08;;;22.10;52.80;;;;;;5112959;28;20078;-40
2021/05/21 05:09:48;;;;;;;6.22;1.95;;;22.00;52.70;;;;;;5111186;27;20059;-39
2021/05/21 05:12:15;;;;;;;3.72;1.80;;;22.00;52.70;;;;;;5113198;28;20066;-42
2021/05/21 05:14:42;;;;;;;2.55;1.80;;;22.00;52.70;;;;;;5111766;28;20051;-39
2021/05/21 05:17:09;;;;;;;4.63;2.33;;;22.00;52.70;;;;;;5111830;28;20092;-39
2021/05/21 05:19:37;;;;;;;4.78;2.08;;;22.10;52.80;;;;;;5112070;28;20052;-40
2021/05/21 05:22:04;;;;;;;4.15;1.80;;;22.00;52.70;;;;;;5111551;28;20069;-39
2021/05/21 05:24:35;;;;;;;3.75;2.15;;;22.10;52.80;;;;;;5111448;28;20415;-39
2021/05/21 05:27:02;;;;;;;3.33;1.80;;;22.00;52.60;;;;;;5111418;28;20048;-40
2021/05/21 05:29:30;;;;;;;3.55;2.15;;;22.10;52.70;;;;;;5111346;28;20137;-39
2021/05/21 05:31:58;;;;;;;2.88;1.73;;;22.10;52.70;;;;;;5111656;28;20054;-39
2021/05/21 05:34:25;;;;;;;2.95;1.92;;;22.10;52.70;;;;;;5110360;28;20051;-39
2021/05/21 05:36:52;;;;;;;5.40;2.10;;;22.10;52.70;;;;;;5112249;28;20552;-40
2021/05/21 05:39:19;;;;;;;4.13;2.00;;;22.10;52.70;;;;;;5110957;28;20499;-39
2021/05/21 05:41:50;;;;;;;4.57;2.13;;;22.10;52.70;;;;;;5111954;28;20044;-39
2021/05/21 05:44:18;;;;;;;3.15;1.92;;;22.10;52.80;;;;;;5111459;28;20047;-39
2021/05/21 05:46:45;;;;;;;3.55;2.10;;;22.10;52.70;;;;;;5111785;28;20147;-39
2021/05/21 05:49:14;;;;;;;5.43;2.63;;;22.10;52.80;;;;;;5111978;28;20059;-37
2021/05/21 05:51:41;;;;;;;4.55;1.92;;;22.10;52.70;;;;;;5111417;27;20050;-38
2021/05/21 05:54:08;;;;;;;2.65;1.88;;;22.10;52.70;;;;;;5111449;28;20040;-39
2021/05/21 05:56:35;;;;;;;2.65;1.98;;;22.10;52.80;;;;;;5111411;28;20047;-39
2021/05/21 05:59:03;;;;;;;5.00;2.10;;;22.10;52.80;;;;;;5111738;27;20122;-38
2021/05/21 06:01:30;;;;;;;7.03;1.77;;;22.10;52.80;;;;;;5111659;28;20415;-38
2021/05/21 06:03:57;;;;;;;2.90;2.00;;;22.10;52.70;;;;;;5110274;28;20384;-38
2021/05/21 06:06:25;;;;;;;3.40;1.65;;;22.10;52.70;;;;;;5101834;28;20149;-39
2021/05/21 06:08:56;;;;;;;5.07;2.40;;;22.10;52.70;;;;;;5110591;28;20533;-38
2021/05/21 06:11:24;;;;;;;5.15;2.00;;;22.10;52.70;;;;;;5111501;28;20134;-38
2021/05/21 06:13:52;;;;;;;4.10;1.80;;;22.10;52.70;;;;;;5110844;28;20415;-38
2021/05/21 06:16:19;;;;;;;3.78;2.17;;;22.10;52.70;;;;;;5109763;28;20100;-38
2021/05/21 06:18:49;;;;;;;2.75;1.60;;;22.10;52.70;;;;;;5111472;27;20043;-38
2021/05/21 06:21:16;;;;;;;4.13;1.80;;;22.10;52.80;;;;;;5110125;28;20058;-38
2021/05/21 06:23:44;;;;;;;2.90;1.80;;;22.10;52.80;;;;;;5110942;28;20097;-38
2021/05/21 06:28:54;;;;;;;3.45;1.70;;;22.10;52.80;;;;;;5108681;28;20051;-40
2021/05/21 06:31:22;;;;;;;3.25;2.08;;;22.10;52.80;;;;;;5101029;28;20100;-38
2021/05/21 06:33:49;;;;;;;3.72;1.90;;;22.10;52.80;;;;;;5097510;28;20039;-38
2021/05/21 06:36:16;;;;;;;4.55;1.83;;;22.10;52.80;;;;;;5109655;28;20128;-39
2021/05/21 06:38:44;;;;;;;3.20;1.75;;;22.10;52.80;;;;;;5110850;28;20444;-38
2021/05/21 06:41:11;;;;;;;4.95;2.08;;;22.10;52.80;;;;;;5109327;28;20063;-38
2021/05/21 06:43:38;;;;;;;2.55;1.50;;;22.10;52.80;;;;;;5111779;28;20059;-38
2021/05/21 06:46:06;;;;;;;3.25;1.90;;;22.10;52.80;;;;;;5096752;28;20050;-39
2021/05/21 06:48:33;;;;;;;2.67;1.67;;;22.10;52.80;;;;;;5111026;28;20051;-38
2021/05/21 06:51:02;;;;;;;4.28;1.90;;;22.10;52.80;;;;;;5110601;28;20503;-38
2021/05/21 06:53:30;;;;;;;3.00;1.63;;;22.10;52.80;;;;;;5098386;28;20055;-38
2021/05/21 06:55:57;;;;;;;2.63;1.85;;;22.10;52.70;;;;;;5111021;28;20043;-38
2021/05/21 06:58:26;;;;;;;3.45;1.55;;;22.10;52.70;;;;;;5109735;28;20048;-38
2021/05/21 07:00:57;;;;;;;2.22;1.42;;;22.10;52.70;;;;;;5110995;28;20140;-39
2021/05/21 07:03:28;;;;;;;2.33;1.70;;;22.10;52.60;;;;;;5110518;28;20039;-38
2021/05/21 07:05:56;;;;;;;5.47;1.60;;;22.10;52.60;;;;;;5109697;28;20065;-38
2021/05/21 07:08:25;;;;;;;2.20;1.50;;;22.10;52.60;;;;;;5110975;28;20051;-39
2021/05/21 07:10:52;;;;;;;2.47;1.70;;;22.10;52.50;;;;;;5109235;28;20044;-39
2021/05/21 07:13:20;;;;;;;2.53;1.60;;;22.10;52.50;;;;;;5109710;28;20040;-38
2021/05/21 07:15:48;;;;;;;4.05;1.50;;;22.10;52.40;;;;;;5109719;28;20123;-38
2021/05/21 07:18:15;;;;;;;2.42;1.60;;;22.10;52.40;;;;;;5109670;28;20456;-38
2021/05/21 07:20:45;;;;;;;1.90;1.50;;;22.10;52.40;;;;;;5111130;28;20040;-39
2021/05/21 07:23:14;;;;;;;3.17;1.75;;;22.10;52.40;;;;;;5109188;28;20052;-39
2021/05/21 07:25:41;;;;;;;3.40;2.00;;;22.10;52.40;;;;;;5110299;28;20043;-38
2021/05/21 07:28:08;;;;;;;2.58;1.63;;;22.10;52.40;;;;;;5097910;28;20097;-39
2021/05/21 07:30:35;;;;;;;4.57;1.80;;;22.10;52.30;;;;;;5109516;28;20073;-38
2021/05/21 07:33:03;;;;;;;4.00;1.98;;;22.10;52.30;;;;;;5110215;28;20052;-38
2021/05/21 07:35:30;;;;;;;3.90;1.63;;;22.10;52.30;;;;;;5108460;28;20055;-38
2021/05/21 07:37:58;;;;;;;3.00;1.73;;;22.10;52.30;;;;;;5110858;28;20042;-38
2021/05/21 07:40:25;;;;;;;2.40;1.50;;;22.10;52.30;;;;;;5109213;28;20044;-41
2021/05/21 07:42:52;;;;;;;3.25;1.23;;;22.10;52.30;;;;;;5110312;28;20472;-38
2021/05/21 07:45:20;;;;;;;2.25;1.50;;;22.20;52.40;;;;;;5098104;28;20048;-39
2021/05/21 07:47:47;;;;;;;1.98;1.52;;;22.10;52.30;;;;;;5100923;28;20381;-39
2021/05/21 07:50:15;;;;;;;3.15;1.80;;;22.10;52.30;;;;;;5114567;28;20384;-38
2021/05/21 07:52:42;;;;;;;2.17;1.50;;;22.10;52.20;;;;;;5086960;28;20042;-39
2021/05/21 07:55:10;;;;;;;2.88;1.67;;;22.10;52.20;;;;;;5113596;28;20503;-39
2021/05/21 07:57:38;;;;;;;1.52;1.10;;;22.10;52.20;;;;;;5113607;28;20050;-39
2021/05/21 08:00:07;;;;;;;1.70;1.40;;;22.20;52.30;;;;;;5112720;28;20518;-39
2021/05/21 08:02:35;;;;;;;2.28;1.60;;;22.20;52.20;;;;;;5113958;28;20043;-41
2021/05/21 08:05:03;;;;;;;2.85;1.60;;;22.10;52.10;;;;;;5112330;27;20040;-39
2021/05/21 08:07:30;;;;;;;2.92;1.48;;;22.20;52.20;;;;;;5113254;28;20140;-40
2021/05/21 08:09:58;;;;;;;4.15;1.75;;;22.20;52.10;;;;;;5113019;28;20059;-40
2021/05/21 08:12:25;;;;;;;2.35;1.30;;;22.20;52.10;;;;;;5112368;28;20099;-39
2021/05/21 08:14:53;;;;;;;3.28;1.60;;;22.20;52.10;;;;;;5102643;28;20050;-39
2021/05/21 08:17:21;;;;;;;2.05;1.30;;;22.20;52.10;;;;;;5111258;28;20051;-39
2021/05/21 08:20:06;;;;;;;2.85;1.27;;;22.20;52.10;;;;;;5114107;27;20078;-38
2021/05/21 08:22:33;;;;;;;3.83;1.33;;;22.20;52.00;;;;;;5112829;28;20047;-38
2021/05/21 08:25:00;;;;;;;2.13;1.33;;;22.20;52.00;;;;;;5112500;27;20055;-39
2021/05/21 08:27:28;;;;;;;1.88;1.25;;;22.20;52.00;;;;;;5114142;28;20048;-40
2021/05/21 08:29:56;;;;;;;2.20;1.40;;;22.20;52.00;;;;;;5112438;27;20055;-39
2021/05/21 08:32:23;;;;;;;2.33;1.40;;;22.20;51.90;;;;;;5113833;27;20058;-38
2021/05/21 08:34:50;;;;;;;1.45;1.00;;;22.20;52.50;;;;;;5112772;28;20059;-39
2021/05/21 08:37:20;;;;;;;2.85;1.30;;;22.20;51.90;;;;;;5112381;28;20048;-39
2021/05/21 08:39:48;;;;;;;2.17;1.35;;;22.20;51.90;;;;;;5102950;28;20130;-39
2021/05/21 08:42:19;;;;;;;2.08;1.15;;;22.20;51.90;;;;;;5110686;28;20051;-38
2021/05/21 08:44:49;;;;;;;1.80;1.33;;;22.20;51.90;;;;;;5113085;28;20156;-40
2021/05/21 08:47:19;;;;;;;1.90;1.10;;;22.20;51.90;;;;;;5112508;28;20514;-38
2021/05/21 08:49:47;;;;;;;3.38;1.45;;;22.20;51.80;;;;;;5111161;28;20051;-38
2021/05/21 08:52:16;;;;;;;2.08;1.30;;;22.20;51.80;;;;;;5113205;28;20399;-39
2021/05/21 08:54:45;;;;;;;2.45;1.15;;;22.20;51.80;;;;;;5111223;28;20567;-39
2021/05/21 08:57:18;;;;;;;2.38;1.20;;;22.20;51.70;;;;;;5113942;27;20051;-39
2021/05/21 08:59:46;;;;;;;2.67;1.17;;;22.20;51.70;;;;;;5110735;28;20066;-39
2021/05/21 09:02:24;;;;;;;2.08;1.23;;;22.20;51.70;;;;;;5112773;27;20457;-39
2021/05/21 09:04:59;;;;;;;2.10;1.10;;;22.20;51.70;;;;;;5112523;28;20062;-38
2021/05/21 09:07:32;;;;;;;1.52;1.15;;;22.20;51.70;;;;;;5111385;27;20055;-39
2021/05/21 09:10:13;;;;;;;1.88;1.42;;;22.20;51.70;;;;;;5112133;28;20048;-38
2021/05/21 09:12:49;;;;;;;1.80;1.30;;;22.20;51.60;;;;;;5111951;28;20062;-38
2021/05/21 09:15:17;;;;;;;2.53;1.23;;;22.20;51.70;;;;;;5110665;28;20040;-38
2021/05/21 09:18:03;;;;;;;3.75;1.20;;;22.20;51.60;;;;;;5112402;28;20065;-38
2021/05/21 09:20:32;;;;;;;1.90;1.30;;;22.20;51.60;;;;;;5111336;28;20615;-39
2021/05/21 09:23:16;;;;;;;2.20;1.20;;;22.20;51.60;;;;;;5101152;28;20410;-39
2021/05/21 09:25:51;;;;;;;2.20;1.33;;;22.20;51.60;;;;;;5112600;28;20062;-38
2021/05/21 09:28:32;;;;;;;3.67;1.27;;;22.20;51.60;;;;;;5110896;27;20047;-39
2021/05/21 09:31:10;;;;;;;1.90;1.00;;;22.20;51.60;;;;;;5112304;27;20048;-39
2021/05/21 09:33:40;;;;;;;1.83;1.23;;;22.20;51.60;;;;;;5111730;28;20051;-40
2021/05/21 09:36:07;;;;;;;2.42;1.10;;;22.20;51.60;;;;;;5110836;28;20055;-40
2021/05/21 09:38:47;;;;;;;1.80;1.30;;;22.20;51.60;;;;;;5112145;28;20047;-39
2021/05/21 09:41:15;;;;;;;4.13;1.25;;;22.20;51.60;;;;;;5111906;28;20058;-40
2021/05/21 09:43:48;;;;;;;1.75;1.10;;;22.20;51.50;;;;;;5112119;27;20040;-39
2021/05/21 09:46:15;;;;;;;1.52;1.35;;;22.30;51.60;;;;;;5111971;28;20445;-39
2021/05/21 09:48:43;;;;;;;3.25;1.20;;;22.20;51.50;;;;;;5111049;28;20043;-39
2021/05/21 09:51:12;;;;;;;1.52;1.08;;;22.30;51.50;;;;;;5112316;28;20079;-39
2021/05/21 09:53:40;;;;;;;1.40;1.10;;;22.20;51.40;;;;;;5111655;27;20050;-39
2021/05/21 09:56:19;;;;;;;2.60;1.38;;;22.20;51.40;;;;;;5111587;28;20403;-40
2021/05/21 09:58:51;;;;;;;2.38;1.15;;;22.30;51.50;;;;;;5111586;28;20044;-42
2021/05/21 10:01:20;;;;;;;4.15;1.23;;;22.30;51.50;;;;;;5109409;28;20357;-39
2021/05/21 10:03:58;;;;;;;2.15;1.17;;;22.30;51.50;;;;;;5111731;28;20048;-38
2021/05/21 10:06:28;;;;;;;2.15;1.30;;;22.20;51.40;;;;;;5110705;28;20384;-39
2021/05/21 10:08:58;;;;;;;1.48;1.08;;;22.20;51.40;;;;;;5110401;28;20477;-40
2021/05/21 10:11:27;;;;;;;1.38;0.90;;;22.30;51.50;;;;;;5111507;28;20384;-38
2021/05/21 10:13:55;;;;;;;1.30;0.90;;;22.30;51.50;;;;;;5109866;27;20047;-38
2021/05/21 10:16:22;;;;;;;1.10;0.90;;;22.20;51.40;;;;;;5111567;27;20054;-38
2021/05/21 10:18:51;;;;;;;1.90;1.10;;;22.20;51.40;;;;;;5110273;28;20048;-38
2021/05/21 10:21:20;;;;;;;1.77;1.08;;;22.30;51.50;;;;;;5110521;28;20036;-38
2021/05/21 10:24:05;;;;;;;1.52;1.20;;;22.20;51.40;;;;;;5111459;28;20043;-39
2021/05/21 10:26:39;;;;;;;2.20;1.23;;;22.30;51.40;;;;;;5109285;28;20047;-39
2021/05/21 10:29:11;;;;;;;1.38;0.90;;;22.30;51.40;;;;;;5111276;28;20050;-38
2021/05/21 10:31:38;;;;;;;1.25;0.90;;;22.30;51.40;;;;;;5110902;28;20047;-38
2021/05/21 10:34:18;;;;;;;2.15;1.30;;;22.30;51.40;;;;;;5099767;28;20051;-40
2021/05/21 10:36:46;;;;;;;2.30;1.10;;;22.30;51.50;;;;;;5110865;28;20905;-38
2021/05/21 10:39:24;;;;;;;1.17;0.90;;;22.30;51.40;;;;;;5110064;28;20092;-39
2021/05/21 10:41:56;;;;;;;1.35;1.10;;;22.30;51.40;;;;;;5111717;27;20051;-39
2021/05/21 10:44:29;;;;;;;2.13;1.20;;;22.30;51.40;;;;;;5110450;28;20047;-39
2021/05/21 10:47:23;;;;;;;2.58;0.75;;;22.30;51.40;;;;;;5109047;28;20043;-38
2021/05/21 10:49:50;;;;;;;1.50;0.90;;;22.30;51.40;;;;;;5110523;28;20521;-38
2021/05/21 10:52:19;;;;;;;1.88;1.25;;;22.30;51.40;;;;;;5110090;28;20365;-38
2021/05/21 10:54:50;;;;;;;1.98;1.00;;;22.30;51.40;;;;;;5109576;28;20055;-38
2021/05/21 10:57:20;;;;;;;3.80;1.00;;;22.30;51.40;;;;;;5110823;28;20047;-38
2021/05/21 10:59:58;;;;;;;1.63;1.02;;;22.30;51.50;;;;;;5109256;28;20039;-38
2021/05/21 11:02:46;;;;;;;1.38;0.80;;;22.30;51.50;;;;;;5111148;28;20043;-39
2021/05/21 11:05:34;;;;;;;1.50;1.20;;;22.30;51.50;;;;;;5097232;28;20522;-39
2021/05/21 11:08:14;;;;;;;3.65;1.23;;;22.30;51.50;;;;;;5108876;28;20039;-38
2021/05/21 11:10:43;;;;;;;1.30;1.00;;;22.30;51.50;;;;;;5101961;28;20044;-39
2021/05/21 11:13:15;;;;;;;1.83;1.02;;;22.30;51.50;;;;;;5109558;28;20056;-40
2021/05/21 11:15:45;;;;;;;1.80;1.00;;;22.30;51.50;;;;;;5109943;28;20127;-40
2021/05/21 11:18:25;;;;;;;1.83;1.10;;;22.30;51.60;;;;;;5111005;28;20048;-42
2021/05/21 11:21:04;;;;;;;1.30;0.80;;;22.30;51.60;;;;;;5108927;28;20058;-41
2021/05/21 11:23:46;;;;;;;0.95;0.80;;;22.30;51.60;;;;;;5113863;28;20047;-39
2021/05/21 11:26:14;;;;;;;1.98;1.00;;;22.30;51.60;;;;;;5114328;28;20047;-39
2021/05/21 11:28:49;;;;;;;1.73;0.95;;;22.30;51.60;;;;;;5112365;28;20123;-39
2021/05/21 11:31:43;;;;;;;1.70;0.98;;;22.30;51.60;;;;;;5114266;28;20043;-38
2021/05/21 11:34:12;;;;;;;1.20;0.85;;;22.30;51.60;;;;;;5112366;28;20061;-43
2021/05/21 11:36:39;;;;;;;1.73;1.17;;;22.30;51.60;;;;;;5113615;28;20100;-40
2021/05/21 11:39:07;;;;;;;1.58;1.10;;;22.30;51.60;;;;;;5114765;28;20118;-39
2021/05/21 11:41:36;;;;;;;2.67;1.00;;;22.30;51.60;;;;;;5113103;28;20040;-39
2021/05/21 11:44:11;;;;;;;1.70;1.08;;;22.30;51.60;;;;;;5114558;27;20043;-38
2021/05/21 11:46:46;;;;;;;2.88;1.15;;;22.30;51.60;;;;;;5113916;28;20483;-38
2021/05/21 11:49:19;;;;;;;0.90;0.80;;;22.30;51.70;;;;;;5113336;28;20399;-38
2021/05/21 11:51:53;;;;;;;1.75;1.00;;;22.30;51.70;;;;;;5113710;28;20600;-39
2021/05/21 11:54:21;;;;;;;1.42;0.93;;;22.30;51.70;;;;;;5112281;28;20047;-38
2021/05/21 11:56:49;;;;;;;1.80;1.00;;;22.30;51.60;;;;;;5113386;28;20051;-39
2021/05/21 11:59:18;;;;;;;2.45;1.08;;;22.30;51.60;;;;;;5113631;28;20137;-39
2021/05/21 12:01:53;;;;;;;1.45;0.90;;;22.30;51.70;;;;;;5112634;27;20047;-38
2021/05/21 12:04:23;;;;;;;3.55;0.95;;;22.30;51.60;;;;;;5102852;28;20059;-39
2021/05/21 12:06:52;;;;;;;2.45;0.98;;;22.30;51.70;;;;;;5113150;28;20043;-39
2021/05/21 12:09:21;;;;;;;6.80;1.25;;;22.30;51.80;;;;;;5113665;28;20108;-40
2021/05/21 12:11:50;;;;;;;42.47;2.75;;;22.30;51.80;;;;;;5113511;28;20040;-39
2021/05/21 12:14:22;;;;;;;50.05;3.00;;;22.30;51.80;;;;;;5111857;27;20050;-39
2021/05/21 12:16:53;;;;;;;18.80;2.00;;;22.30;51.80;;;;;;5113774;28;20058;-39
2021/05/21 12:19:22;;;;;;;29.50;1.70;;;22.30;51.80;;;;;;5113281;27;20047;-39
2021/05/21 12:21:51;;;;;;;26.80;2.95;;;22.40;51.80;;;;;;5113351;28;20062;-39
2021/05/21 12:24:23;;;;;;;7.70;1.50;;;22.30;51.80;;;;;;5112653;28;20040;-39
2021/05/21 12:26:52;;;;;;;12.68;1.30;;;22.30;51.70;;;;;;5112659;28;20040;-38
2021/05/21 12:29:22;;;;;;;19.33;1.50;;;22.40;51.90;;;;;;5113603;28;20645;-38
2021/05/21 12:31:55;;;;;;;27.80;2.63;;;22.30;51.70;;;;;;5112452;28;20148;-39
2021/05/21 12:34:24;;;;;;;17.15;1.70;;;22.30;51.70;;;;;;5113195;27;20039;-39
2021/05/21 12:37:05;;;;;;;52.80;3.25;;;22.30;51.80;;;;;;5112665;28;20047;-39
2021/05/21 12:39:43;;;;;;;60.20;4.65;;;22.30;51.70;;;;;;5111879;27;20460;-38
2021/05/21 12:42:19;;;;;;;53.88;4.75;;;22.30;51.70;;;;;;5113303;27;20044;-39
2021/05/21 12:44:53;;;;;;;56.72;4.10;;;22.40;51.80;;;;;;5112152;28;20051;-38
2021/05/21 12:47:21;;;;;;;40.38;3.63;;;22.40;51.80;;;;;;5112682;28;20079;-37
2021/05/21 12:49:50;;;;;;;41.38;5.00;;;22.30;51.70;;;;;;5113278;28;20048;-37
2021/05/21 12:52:18;;;;;;;86.05;4.80;;;22.30;51.70;;;;;;5110707;28;20055;-37
2021/05/21 12:54:48;;;;;;;106.80;5.45;;;22.30;51.70;;;;;;5113447;27;20043;-38
2021/05/21 12:57:20;;;;;;;87.40;5.63;;;22.40;51.70;;;;;;5112146;28;20130;-39
2021/05/21 12:59:52;;;;;;;62.53;3.92;;;22.40;51.70;;;;;;5111674;28;20043;-37